Terminal Aerodrome Forecast
Issued by NWS Grand Forks, ND

Home | Current Version | Previous Version | Graphics & Text | Print | Product List | Glossary On
Versions: 1 2 3 4 5 6 7 8 9 10 11 12 13 14 15 16 17 18 19 20 21 22
242
FTUS43 KFGF 230520
TAFGFK
TAF
KGFK 230520Z 2306/2406 35010KT P6SM VCSH OVC040
      TEMPO 2306/2308 -RA OVC025
     FM231200 02013KT P6SM OVC020
     FM231900 02013KT P6SM BKN040
     FM240000 04010KT P6SM SCT070=

USA.gov is the U.S. government's official web portal to all federal, state and local government web resources and services.